sensor_id;sensor_type;location;lat;lon;timestamp;temperature;humidity
37240;DHT22;23130;48.760;9.178;2022-11-15T00:01:30;10.60;99.90
37240;DHT22;23130;48.760;9.178;2022-11-15T00:03:56;10.60;99.90
37240;DHT22;23130;48.760;9.178;2022-11-15T00:06:21;10.60;99.90
37240;DHT22;23130;48.760;9.178;2022-11-15T00:08:46;10.50;99.90
37240;DHT22;23130;48.760;9.178;2022-11-15T00:11:12;10.50;99.90
37240;DHT22;23130;48.760;9.178;2022-11-15T00:13:38;10.40;99.90
37240;DHT22;23130;48.760;9.178;2022-11-15T00:16:03;10.40;99.90
37240;DHT22;23130;48.760;9.178;2022-11-15T00:18:29;10.40;99.90
37240;DHT22;23130;48.760;9.178;2022-11-15T00:20:55;10.40;99.90
37240;DHT22;23130;48.760;9.178;2022-11-15T00:23:21;10.30;99.90
37240;DHT22;23130;48.760;9.178;2022-11-15T00:25:47;10.30;99.90
37240;DHT22;23130;48.760;9.178;2022-11-15T00:28:12;10.30;99.90
37240;DHT22;23130;48.760;9.178;2022-11-15T00:30:37;10.40;99.90
37240;DHT22;23130;48.760;9.178;2022-11-15T00:33:03;10.40;99.90
37240;DHT22;23130;48.760;9.178;2022-11-15T00:35:31;10.40;99.90
37240;DHT22;23130;48.760;9.178;2022-11-15T00:37:56;10.40;99.90
37240;DHT22;23130;48.760;9.178;2022-11-15T00:40:22;10.40;99.90
37240;DHT22;23130;48.760;9.178;2022-11-15T00:42:47;10.50;99.90
37240;DHT22;23130;48.760;9.178;2022-11-15T00:45:13;10.50;99.90
37240;DHT22;23130;48.760;9.178;2022-11-15T00:47:38;10.60;99.90
37240;DHT22;23130;48.760;9.178;2022-11-15T00:50:04;10.50;99.90
37240;DHT22;23130;48.760;9.178;2022-11-15T00:52:29;10.70;99.90
37240;DHT22;23130;48.760;9.178;2022-11-15T00:54:55;10.60;99.90
37240;DHT22;23130;48.760;9.178;2022-11-15T00:57:20;10.60;99.90
37240;DHT22;23130;48.760;9.178;2022-11-15T00:59:46;10.50;99.90
37240;DHT22;23130;48.760;9.178;2022-11-15T01:02:11;10.60;99.90
37240;DHT22;23130;48.760;9.178;2022-11-15T01:04:37;10.40;99.90
37240;DHT22;23130;48.760;9.178;2022-11-15T01:07:02;10.20;99.90
37240;DHT22;23130;48.760;9.178;2022-11-15T01:09:28;9.90;99.90
37240;DHT22;23130;48.760;9.178;2022-11-15T01:11:53;9.70;99.90
37240;DHT22;23130;48.760;9.178;2022-11-15T01:14:19;9.50;99.90
37240;DHT22;23130;48.760;9.178;2022-11-15T01:16:44;9.30;99.90
37240;DHT22;23130;48.760;9.178;2022-11-15T01:19:10;9.20;99.90
37240;DHT22;23130;48.760;9.178;2022-11-15T01:21:35;9.00;99.90
37240;DHT22;23130;48.760;9.178;2022-11-15T01:24:00;8.80;99.90
37240;DHT22;23130;48.760;9.178;2022-11-15T01:26:26;8.70;99.90
37240;DHT22;23130;48.760;9.178;2022-11-15T01:28:52;8.50;99.90
37240;DHT22;23130;48.760;9.178;2022-11-15T01:31:19;8.40;99.90
37240;DHT22;23130;48.760;9.178;2022-11-15T01:33:45;8.30;99.90
37240;DHT22;23130;48.760;9.178;2022-11-15T01:36:11;8.10;99.90
37240;DHT22;23130;48.760;9.178;2022-11-15T01:38:37;8.10;99.90
37240;DHT22;23130;48.760;9.178;2022-11-15T01:41:03;8.00;99.90
37240;DHT22;23130;48.760;9.178;2022-11-15T01:43:35;7.80;99.90
37240;DHT22;23130;48.760;9.178;2022-11-15T01:46:06;7.80;99.90
37240;DHT22;23130;48.760;9.178;2022-11-15T01:48:33;7.70;99.90
37240;DHT22;23130;48.760;9.178;2022-11-15T01:51:06;7.70;99.90
37240;DHT22;23130;48.760;9.178;2022-11-15T01:53:33;7.80;99.90
37240;DHT22;23130;48.760;9.178;2022-11-15T01:55:59;7.80;99.90
37240;DHT22;23130;48.760;9.178;2022-11-15T01:58:27;7.80;99.90
37240;DHT22;23130;48.760;9.178;2022-11-15T02:00:53;8.00;99.90
37240;DHT22;23130;48.760;9.178;2022-11-15T02:03:18;8.00;99.90
37240;DHT22;23130;48.760;9.178;2022-11-15T02:05:44;7.90;99.90
37240;DHT22;23130;48.760;9.178;2022-11-15T02:08:10;7.90;99.90
37240;DHT22;23130;48.760;9.178;2022-11-15T02:10:45;7.90;99.90
37240;DHT22;23130;48.760;9.178;2022-11-15T02:13:11;8.00;99.90
37240;DHT22;23130;48.760;9.178;2022-11-15T02:15:40;8.00;99.90
37240;DHT22;23130;48.760;9.178;2022-11-15T02:23:31;8.10;99.90
37240;DHT22;23130;48.760;9.178;2022-11-15T02:36:00;8.50;99.90
37240;DHT22;23130;48.760;9.178;2022-11-15T02:41:02;8.60;99.90
37240;DHT22;23130;48.760;9.178;2022-11-15T02:43:29;8.60;99.90
37240;DHT22;23130;48.760;9.178;2022-11-15T02:46:26;8.70;99.90
37240;DHT22;23130;48.760;9.178;2022-11-15T02:49:13;8.70;99.90
37240;DHT22;23130;48.760;9.178;2022-11-15T02:51:39;8.70;99.90
37240;DHT22;23130;48.760;9.178;2022-11-15T02:54:06;8.80;99.90
37240;DHT22;23130;48.760;9.178;2022-11-15T02:56:31;8.90;99.90
37240;DHT22;23130;48.760;9.178;2022-11-15T02:59:00;8.90;99.90
37240;DHT22;23130;48.760;9.178;2022-11-15T03:01:46;9.00;99.90
37240;DHT22;23130;48.760;9.178;2022-11-15T03:07:02;8.90;99.90
37240;DHT22;23130;48.760;9.178;2022-11-15T03:09:34;8.90;99.90
37240;DHT22;23130;48.760;9.178;2022-11-15T03:12:07;9.00;99.90
37240;DHT22;23130;48.760;9.178;2022-11-15T03:14:34;9.00;99.90
37240;DHT22;23130;48.760;9.178;2022-11-15T03:17:11;8.90;99.90
37240;DHT22;23130;48.760;9.178;2022-11-15T03:19:42;8.80;99.90
37240;DHT22;23130;48.760;9.178;2022-11-15T03:22:10;8.70;99.90
37240;DHT22;23130;48.760;9.178;2022-11-15T03:24:36;8.60;99.90
37240;DHT22;23130;48.760;9.178;2022-11-15T03:27:03;8.60;99.90
37240;DHT22;23130;48.760;9.178;2022-11-15T03:29:32;8.50;99.90
37240;DHT22;23130;48.760;9.178;2022-11-15T03:31:59;8.50;99.90
37240;DHT22;23130;48.760;9.178;2022-11-15T03:34:28;8.50;99.90
37240;DHT22;23130;48.760;9.178;2022-11-15T03:36:54;8.60;99.90
37240;DHT22;23130;48.760;9.178;2022-11-15T03:39:20;8.70;99.90
37240;DHT22;23130;48.760;9.178;2022-11-15T03:41:48;8.80;99.90
37240;DHT22;23130;48.760;9.178;2022-11-15T03:44:31;8.90;99.90
37240;DHT22;23130;48.760;9.178;2022-11-15T03:49:37;8.90;99.90
37240;DHT22;23130;48.760;9.178;2022-11-15T03:52:04;8.80;99.90
37240;DHT22;23130;48.760;9.178;2022-11-15T03:54:30;8.60;99.90
37240;DHT22;23130;48.760;9.178;2022-11-15T03:56:55;8.50;99.90
37240;DHT22;23130;48.760;9.178;2022-11-15T03:59:21;8.60;99.90
37240;DHT22;23130;48.760;9.178;2022-11-15T04:01:46;8.70;99.90
37240;DHT22;23130;48.760;9.178;2022-11-15T04:04:12;8.70;99.90
37240;DHT22;23130;48.760;9.178;2022-11-15T04:06:37;8.80;99.90
37240;DHT22;23130;48.760;9.178;2022-11-15T04:09:03;8.90;99.90
37240;DHT22;23130;48.760;9.178;2022-11-15T04:11:28;9.00;99.90
37240;DHT22;23130;48.760;9.178;2022-11-15T04:13:54;9.00;99.90
37240;DHT22;23130;48.760;9.178;2022-11-15T04:16:19;9.10;99.90
37240;DHT22;23130;48.760;9.178;2022-11-15T04:18:45;9.10;99.90
37240;DHT22;23130;48.760;9.178;2022-11-15T04:21:30;9.10;99.90
37240;DHT22;23130;48.760;9.178;2022-11-15T04:24:14;9.20;99.90
37240;DHT22;23130;48.760;9.178;2022-11-15T04:26:40;9.20;99.90
37240;DHT22;23130;48.760;9.178;2022-11-15T04:29:05;9.20;99.90
37240;DHT22;23130;48.760;9.178;2022-11-15T04:31:49;9.20;99.90
37240;DHT22;23130;48.760;9.178;2022-11-15T04:34:15;9.30;99.90
37240;DHT22;23130;48.760;9.178;2022-11-15T04:36:40;9.40;99.90
37240;DHT22;23130;48.760;9.178;2022-11-15T04:39:24;9.30;99.90
37240;DHT22;23130;48.760;9.178;2022-11-15T04:41:50;9.50;99.90
37240;DHT22;23130;48.760;9.178;2022-11-15T04:44:15;9.40;99.90
37240;DHT22;23130;48.760;9.178;2022-11-15T04:46:41;9.50;99.90
37240;DHT22;23130;48.760;9.178;2022-11-15T04:49:07;9.50;99.90
37240;DHT22;23130;48.760;9.178;2022-11-15T04:51:32;9.50;99.90
37240;DHT22;23130;48.760;9.178;2022-11-15T04:53:57;9.50;99.90
37240;DHT22;23130;48.760;9.178;2022-11-15T04:56:23;9.50;99.90
37240;DHT22;23130;48.760;9.178;2022-11-15T04:58:49;9.40;99.90
37240;DHT22;23130;48.760;9.178;2022-11-15T05:01:15;9.30;99.90
37240;DHT22;23130;48.760;9.178;2022-11-15T05:03:41;9.40;99.90
37240;DHT22;23130;48.760;9.178;2022-11-15T05:06:25;9.40;99.90
37240;DHT22;23130;48.760;9.178;2022-11-15T05:08:50;9.50;99.90
37240;DHT22;23130;48.760;9.178;2022-11-15T05:11:16;9.50;99.90
37240;DHT22;23130;48.760;9.178;2022-11-15T05:13:41;9.40;99.90
37240;DHT22;23130;48.760;9.178;2022-11-15T05:16:07;9.50;99.90
37240;DHT22;23130;48.760;9.178;2022-11-15T05:18:32;9.50;99.90
37240;DHT22;23130;48.760;9.178;2022-11-15T05:21:05;9.60;99.90
37240;DHT22;23130;48.760;9.178;2022-11-15T05:23:30;9.70;99.90
37240;DHT22;23130;48.760;9.178;2022-11-15T05:25:59;9.70;99.90
37240;DHT22;23130;48.760;9.178;2022-11-15T05:28:25;9.80;99.90
37240;DHT22;23130;48.760;9.178;2022-11-15T05:30:50;9.80;99.90
37240;DHT22;23130;48.760;9.178;2022-11-15T05:33:16;9.70;99.90
37240;DHT22;23130;48.760;9.178;2022-11-15T05:35:42;9.80;99.90
37240;DHT22;23130;48.760;9.178;2022-11-15T05:38:09;9.80;99.90
37240;DHT22;23130;48.760;9.178;2022-11-15T05:40:34;9.80;99.90
37240;DHT22;23130;48.760;9.178;2022-11-15T05:43:00;9.90;99.90
37240;DHT22;23130;48.760;9.178;2022-11-15T05:45:26;10.00;99.90
37240;DHT22;23130;48.760;9.178;2022-11-15T05:47:52;10.00;99.90
37240;DHT22;23130;48.760;9.178;2022-11-15T05:50:18;10.10;99.90
37240;DHT22;23130;48.760;9.178;2022-11-15T05:52:44;10.10;99.90
37240;DHT22;23130;48.760;9.178;2022-11-15T05:55:10;10.00;99.90
37240;DHT22;23130;48.760;9.178;2022-11-15T05:57:36;10.10;99.90
37240;DHT22;23130;48.760;9.178;2022-11-15T06:00:03;10.10;99.90
37240;DHT22;23130;48.760;9.178;2022-11-15T06:02:28;10.10;99.90
37240;DHT22;23130;48.760;9.178;2022-11-15T06:04:54;10.10;99.90
37240;DHT22;23130;48.760;9.178;2022-11-15T06:07:19;10.10;99.90
37240;DHT22;23130;48.760;9.178;2022-11-15T06:09:45;10.10;99.90
37240;DHT22;23130;48.760;9.178;2022-11-15T06:12:10;10.10;99.90
37240;DHT22;23130;48.760;9.178;2022-11-15T06:14:36;10.00;99.90
37240;DHT22;23130;48.760;9.178;2022-11-15T06:17:01;9.90;99.90
37240;DHT22;23130;48.760;9.178;2022-11-15T06:19:28;9.80;99.90
37240;DHT22;23130;48.760;9.178;2022-11-15T06:22:00;9.70;99.90
37240;DHT22;23130;48.760;9.178;2022-11-15T06:24:26;9.50;99.90
37240;DHT22;23130;48.760;9.178;2022-11-15T06:26:51;9.40;99.90
37240;DHT22;23130;48.760;9.178;2022-11-15T06:29:17;9.20;99.90
37240;DHT22;23130;48.760;9.178;2022-11-15T06:31:42;8.90;99.90
37240;DHT22;23130;48.760;9.178;2022-11-15T06:34:08;8.70;99.90
37240;DHT22;23130;48.760;9.178;2022-11-15T06:36:34;8.50;99.90
37240;DHT22;23130;48.760;9.178;2022-11-15T06:39:01;8.40;99.90
37240;DHT22;23130;48.760;9.178;2022-11-15T06:41:26;8.30;99.90
37240;DHT22;23130;48.760;9.178;2022-11-15T06:43:52;8.20;99.90
37240;DHT22;23130;48.760;9.178;2022-11-15T06:46:17;8.20;99.90
37240;DHT22;23130;48.760;9.178;2022-11-15T06:48:43;8.20;99.90
37240;DHT22;23130;48.760;9.178;2022-11-15T06:51:08;8.20;99.90
37240;DHT22;23130;48.760;9.178;2022-11-15T06:53:34;8.20;99.90
37240;DHT22;23130;48.760;9.178;2022-11-15T06:56:00;8.40;99.90
37240;DHT22;23130;48.760;9.178;2022-11-15T06:58:25;8.60;99.90
37240;DHT22;23130;48.760;9.178;2022-11-15T07:00:51;8.70;99.90
37240;DHT22;23130;48.760;9.178;2022-11-15T07:03:16;8.80;99.90
37240;DHT22;23130;48.760;9.178;2022-11-15T07:05:42;9.00;99.90
37240;DHT22;23130;48.760;9.178;2022-11-15T07:08:15;9.00;99.90
37240;DHT22;23130;48.760;9.178;2022-11-15T07:10:40;9.10;99.90
37240;DHT22;23130;48.760;9.178;2022-11-15T07:13:06;9.20;99.90
37240;DHT22;23130;48.760;9.178;2022-11-15T07:15:31;9.20;99.90
37240;DHT22;23130;48.760;9.178;2022-11-15T07:17:59;9.30;99.90
37240;DHT22;23130;48.760;9.178;2022-11-15T07:20:25;9.40;99.90
37240;DHT22;23130;48.760;9.178;2022-11-15T07:22:50;9.50;99.90
37240;DHT22;23130;48.760;9.178;2022-11-15T07:25:16;9.50;99.90
37240;DHT22;23130;48.760;9.178;2022-11-15T07:27:41;9.50;99.90
37240;DHT22;23130;48.760;9.178;2022-11-15T07:30:07;9.60;99.90
37240;DHT22;23130;48.760;9.178;2022-11-15T07:32:32;9.70;99.90
37240;DHT22;23130;48.760;9.178;2022-11-15T07:34:59;9.80;99.90
37240;DHT22;23130;48.760;9.178;2022-11-15T07:37:24;10.00;99.90
37240;DHT22;23130;48.760;9.178;2022-11-15T07:39:50;10.10;99.90
37240;DHT22;23130;48.760;9.178;2022-11-15T07:42:15;10.30;99.90
37240;DHT22;23130;48.760;9.178;2022-11-15T07:45:16;10.40;99.90
37240;DHT22;23130;48.760;9.178;2022-11-15T07:47:44;10.60;99.90
37240;DHT22;23130;48.760;9.178;2022-11-15T07:50:10;10.70;99.90
37240;DHT22;23130;48.760;9.178;2022-11-15T07:52:35;10.90;99.90
37240;DHT22;23130;48.760;9.178;2022-11-15T07:55:01;11.00;99.90
37240;DHT22;23130;48.760;9.178;2022-11-15T07:57:26;11.20;99.90
37240;DHT22;23130;48.760;9.178;2022-11-15T07:59:52;11.30;99.90
37240;DHT22;23130;48.760;9.178;2022-11-15T08:02:18;11.40;99.90
37240;DHT22;23130;48.760;9.178;2022-11-15T08:04:43;11.60;99.90
37240;DHT22;23130;48.760;9.178;2022-11-15T08:07:09;11.60;99.90
37240;DHT22;23130;48.760;9.178;2022-11-15T08:09:34;11.70;99.90
37240;DHT22;23130;48.760;9.178;2022-11-15T08:12:00;11.70;99.90
37240;DHT22;23130;48.760;9.178;2022-11-15T08:14:25;11.50;99.90
37240;DHT22;23130;48.760;9.178;2022-11-15T08:16:51;11.50;99.90
37240;DHT22;23130;48.760;9.178;2022-11-15T08:19:17;11.40;99.90
37240;DHT22;23130;48.760;9.178;2022-11-15T08:21:43;11.40;99.90
37240;DHT22;23130;48.760;9.178;2022-11-15T08:24:10;11.30;99.90
37240;DHT22;23130;48.760;9.178;2022-11-15T08:26:35;11.10;99.90
37240;DHT22;23130;48.760;9.178;2022-11-15T08:29:01;10.90;99.90
37240;DHT22;23130;48.760;9.178;2022-11-15T08:31:26;10.90;99.90
37240;DHT22;23130;48.760;9.178;2022-11-15T08:33:52;10.80;99.90
37240;DHT22;23130;48.760;9.178;2022-11-15T08:36:17;10.80;99.90
37240;DHT22;23130;48.760;9.178;2022-11-15T08:38:43;10.80;99.90
37240;DHT22;23130;48.760;9.178;2022-11-15T08:41:09;11.00;99.90
37240;DHT22;23130;48.760;9.178;2022-11-15T08:43:36;11.00;99.90
37240;DHT22;23130;48.760;9.178;2022-11-15T08:46:01;11.10;99.90
37240;DHT22;23130;48.760;9.178;2022-11-15T08:48:27;11.20;99.90
37240;DHT22;23130;48.760;9.178;2022-11-15T08:50:55;11.30;99.90
37240;DHT22;23130;48.760;9.178;2022-11-15T08:53:21;11.30;99.90
37240;DHT22;23130;48.760;9.178;2022-11-15T08:55:46;11.50;99.90
37240;DHT22;23130;48.760;9.178;2022-11-15T08:58:12;11.60;99.90
37240;DHT22;23130;48.760;9.178;2022-11-15T09:00:37;11.70;99.90
37240;DHT22;23130;48.760;9.178;2022-11-15T09:03:04;11.80;99.90
37240;DHT22;23130;48.760;9.178;2022-11-15T09:05:30;11.90;99.90
37240;DHT22;23130;48.760;9.178;2022-11-15T09:07:56;12.10;99.90
37240;DHT22;23130;48.760;9.178;2022-11-15T09:10:22;12.30;99.90
37240;DHT22;23130;48.760;9.178;2022-11-15T09:12:48;12.40;99.90
37240;DHT22;23130;48.760;9.178;2022-11-15T09:15:14;12.70;99.90
37240;DHT22;23130;48.760;9.178;2022-11-15T09:17:39;12.70;99.90
37240;DHT22;23130;48.760;9.178;2022-11-15T09:20:05;12.80;99.90
37240;DHT22;23130;48.760;9.178;2022-11-15T09:22:31;12.90;99.90
37240;DHT22;23130;48.760;9.178;2022-11-15T09:24:56;13.00;99.90
37240;DHT22;23130;48.760;9.178;2022-11-15T09:27:22;13.10;99.90
37240;DHT22;23130;48.760;9.178;2022-11-15T09:29:47;13.30;99.90
37240;DHT22;23130;48.760;9.178;2022-11-15T09:32:13;13.40;99.90
37240;DHT22;23130;48.760;9.178;2022-11-15T09:34:38;13.40;99.90
37240;DHT22;23130;48.760;9.178;2022-11-15T09:37:04;13.50;99.90
37240;DHT22;23130;48.760;9.178;2022-11-15T09:39:29;13.60;99.90
37240;DHT22;23130;48.760;9.178;2022-11-15T09:41:58;13.80;99.90
37240;DHT22;23130;48.760;9.178;2022-11-15T09:45:10;13.90;99.90
37240;DHT22;23130;48.760;9.178;2022-11-15T09:50:15;13.90;99.90
37240;DHT22;23130;48.760;9.178;2022-11-15T09:52:43;14.00;99.90
37240;DHT22;23130;48.760;9.178;2022-11-15T09:55:10;14.00;99.90
37240;DHT22;23130;48.760;9.178;2022-11-15T09:57:44;14.00;99.90
37240;DHT22;23130;48.760;9.178;2022-11-15T10:05:29;14.20;99.90
37240;DHT22;23130;48.760;9.178;2022-11-15T10:10:38;14.50;99.90
37240;DHT22;23130;48.760;9.178;2022-11-15T10:13:04;14.60;99.90
37240;DHT22;23130;48.760;9.178;2022-11-15T10:15:33;14.60;99.90
37240;DHT22;23130;48.760;9.178;2022-11-15T10:18:15;14.70;99.90
37240;DHT22;23130;48.760;9.178;2022-11-15T10:20:53;14.70;99.90
37240;DHT22;23130;48.760;9.178;2022-11-15T10:23:22;14.80;99.90
37240;DHT22;23130;48.760;9.178;2022-11-15T10:25:50;14.90;99.90
37240;DHT22;23130;48.760;9.178;2022-11-15T10:30:57;14.90;99.90
37240;DHT22;23130;48.760;9.178;2022-11-15T10:44:24;14.90;99.90
37240;DHT22;23130;48.760;9.178;2022-11-15T10:49:30;14.80;99.90
37240;DHT22;23130;48.760;9.178;2022-11-15T10:52:12;14.90;99.90
37240;DHT22;23130;48.760;9.178;2022-11-15T10:54:48;14.80;99.90
37240;DHT22;23130;48.760;9.178;2022-11-15T10:57:25;14.90;99.90
37240;DHT22;23130;48.760;9.178;2022-11-15T10:59:55;15.00;99.90
37240;DHT22;23130;48.760;9.178;2022-11-15T11:02:36;14.90;99.90
37240;DHT22;23130;48.760;9.178;2022-11-15T11:05:05;14.90;99.90
37240;DHT22;23130;48.760;9.178;2022-11-15T11:07:33;14.90;99.90
37240;DHT22;23130;48.760;9.178;2022-11-15T11:10:17;14.80;99.90
37240;DHT22;23130;48.760;9.178;2022-11-15T11:12:43;14.60;99.90
37240;DHT22;23130;48.760;9.178;2022-11-15T11:15:12;14.60;99.90
37240;DHT22;23130;48.760;9.178;2022-11-15T11:20:53;14.50;99.90
37240;DHT22;23130;48.760;9.178;2022-11-15T11:23:17;14.50;99.90
37240;DHT22;23130;48.760;9.178;2022-11-15T11:41:55;14.80;99.90
37240;DHT22;23130;48.760;9.178;2022-11-15T11:44:27;14.80;99.90
37240;DHT22;23130;48.760;9.178;2022-11-15T11:47:19;14.90;99.90
37240;DHT22;23130;48.760;9.178;2022-11-15T11:50:26;14.90;99.90
37240;DHT22;23130;48.760;9.178;2022-11-15T11:53:11;15.00;99.90
37240;DHT22;23130;48.760;9.178;2022-11-15T11:58:11;15.20;99.90
37240;DHT22;23130;48.760;9.178;2022-11-15T12:00:46;15.30;99.90
37240;DHT22;23130;48.760;9.178;2022-11-15T12:03:14;15.30;99.90
37240;DHT22;23130;48.760;9.178;2022-11-15T12:05:45;15.30;99.90
37240;DHT22;23130;48.760;9.178;2022-11-15T12:08:39;15.40;99.90
37240;DHT22;23130;48.760;9.178;2022-11-15T12:13:35;15.40;99.90
37240;DHT22;23130;48.760;9.178;2022-11-15T12:16:19;15.40;99.90
37240;DHT22;23130;48.760;9.178;2022-11-15T12:18:50;15.40;99.90
37240;DHT22;23130;48.760;9.178;2022-11-15T12:23:59;15.40;99.90
37240;DHT22;23130;48.760;9.178;2022-11-15T12:26:30;15.30;99.90
37240;DHT22;23130;48.760;9.178;2022-11-15T12:29:01;15.30;99.90
37240;DHT22;23130;48.760;9.178;2022-11-15T12:34:02;15.20;99.90
37240;DHT22;23130;48.760;9.178;2022-11-15T12:36:36;15.10;99.90
37240;DHT22;23130;48.760;9.178;2022-11-15T12:39:10;15.00;99.90
37240;DHT22;23130;48.760;9.178;2022-11-15T12:41:38;14.80;99.90
37240;DHT22;23130;48.760;9.178;2022-11-15T12:44:10;14.70;99.90
37240;DHT22;23130;48.760;9.178;2022-11-15T12:59:55;14.40;99.90
37240;DHT22;23130;48.760;9.178;2022-11-15T13:02:42;14.30;99.90
37240;DHT22;23130;48.760;9.178;2022-11-15T13:17:46;14.10;99.90
37240;DHT22;23130;48.760;9.178;2022-11-15T13:22:44;14.20;99.90
37240;DHT22;23130;48.760;9.178;2022-11-15T13:30:37;14.20;99.90
37240;DHT22;23130;48.760;9.178;2022-11-15T13:33:14;14.10;99.90
37240;DHT22;23130;48.760;9.178;2022-11-15T13:35:42;14.00;99.90
37240;DHT22;23130;48.760;9.178;2022-11-15T13:38:29;13.90;99.90
37240;DHT22;23130;48.760;9.178;2022-11-15T13:40:56;13.90;99.90
37240;DHT22;23130;48.760;9.178;2022-11-15T13:46:27;13.80;99.90
37240;DHT22;23130;48.760;9.178;2022-11-15T13:49:03;13.70;99.90
37240;DHT22;23130;48.760;9.178;2022-11-15T13:51:52;13.70;99.90
37240;DHT22;23130;48.760;9.178;2022-11-15T13:54:43;13.70;99.90
37240;DHT22;23130;48.760;9.178;2022-11-15T13:59:57;13.50;99.90
37240;DHT22;23130;48.760;9.178;2022-11-15T14:02:29;13.40;99.90
37240;DHT22;23130;48.760;9.178;2022-11-15T14:04:56;13.30;99.90
37240;DHT22;23130;48.760;9.178;2022-11-15T14:07:25;13.10;99.90
37240;DHT22;23130;48.760;9.178;2022-11-15T14:09:51;13.00;99.90
37240;DHT22;23130;48.760;9.178;2022-11-15T14:12:50;12.80;99.90
37240;DHT22;23130;48.760;9.178;2022-11-15T14:15:24;12.70;99.90
37240;DHT22;23130;48.760;9.178;2022-11-15T14:17:51;12.50;99.90
37240;DHT22;23130;48.760;9.178;2022-11-15T14:20:33;12.40;99.90
37240;DHT22;23130;48.760;9.178;2022-11-15T14:23:24;12.20;99.90
37240;DHT22;23130;48.760;9.178;2022-11-15T14:25:53;12.20;99.90
37240;DHT22;23130;48.760;9.178;2022-11-15T14:30:48;12.10;99.90
37240;DHT22;23130;48.760;9.178;2022-11-15T14:33:32;12.00;99.90
37240;DHT22;23130;48.760;9.178;2022-11-15T14:36:01;12.00;99.90
37240;DHT22;23130;48.760;9.178;2022-11-15T14:38:27;12.10;99.90
37240;DHT22;23130;48.760;9.178;2022-11-15T14:40:52;12.20;99.90
37240;DHT22;23130;48.760;9.178;2022-11-15T14:43:20;12.10;99.90
37240;DHT22;23130;48.760;9.178;2022-11-15T14:45:45;12.20;99.90
37240;DHT22;23130;48.760;9.178;2022-11-15T14:48:11;12.20;99.90
37240;DHT22;23130;48.760;9.178;2022-11-15T14:50:37;12.20;99.90
37240;DHT22;23130;48.760;9.178;2022-11-15T14:53:03;12.20;99.90
37240;DHT22;23130;48.760;9.178;2022-11-15T14:55:34;12.20;99.90
37240;DHT22;23130;48.760;9.178;2022-11-15T14:58:01;12.20;99.90
37240;DHT22;23130;48.760;9.178;2022-11-15T15:00:31;12.30;99.90
37240;DHT22;23130;48.760;9.178;2022-11-15T15:02:57;12.20;99.90
37240;DHT22;23130;48.760;9.178;2022-11-15T15:05:25;12.30;99.90
37240;DHT22;23130;48.760;9.178;2022-11-15T15:07:51;12.20;99.90
37240;DHT22;23130;48.760;9.178;2022-11-15T15:10:18;12.20;99.90
37240;DHT22;23130;48.760;9.178;2022-11-15T15:12:44;12.30;99.90
37240;DHT22;23130;48.760;9.178;2022-11-15T15:15:14;12.20;99.90
37240;DHT22;23130;48.760;9.178;2022-11-15T15:17:40;12.20;99.90
37240;DHT22;23130;48.760;9.178;2022-11-15T15:20:06;12.40;99.90
37240;DHT22;23130;48.760;9.178;2022-11-15T15:22:32;12.40;99.90
37240;DHT22;23130;48.760;9.178;2022-11-15T15:24:57;12.30;99.90
37240;DHT22;23130;48.760;9.178;2022-11-15T15:27:23;12.40;99.90
37240;DHT22;23130;48.760;9.178;2022-11-15T15:29:48;12.30;99.90
37240;DHT22;23130;48.760;9.178;2022-11-15T15:32:14;12.20;99.90
37240;DHT22;23130;48.760;9.178;2022-11-15T15:34:39;12.10;99.90
37240;DHT22;23130;48.760;9.178;2022-11-15T15:37:18;12.10;99.90
37240;DHT22;23130;48.760;9.178;2022-11-15T15:39:52;11.90;99.90
37240;DHT22;23130;48.760;9.178;2022-11-15T15:42:19;11.90;99.90
37240;DHT22;23130;48.760;9.178;2022-11-15T15:44:45;11.90;99.90
37240;DHT22;23130;48.760;9.178;2022-11-15T15:47:13;11.90;99.90
37240;DHT22;23130;48.760;9.178;2022-11-15T15:49:39;11.90;99.90
37240;DHT22;23130;48.760;9.178;2022-11-15T15:52:05;12.00;99.90
37240;DHT22;23130;48.760;9.178;2022-11-15T15:54:30;12.00;99.90
37240;DHT22;23130;48.760;9.178;2022-11-15T15:56:56;11.90;99.90
37240;DHT22;23130;48.760;9.178;2022-11-15T15:59:21;12.00;99.90
37240;DHT22;23130;48.760;9.178;2022-11-15T16:01:47;12.00;99.90
37240;DHT22;23130;48.760;9.178;2022-11-15T16:04:12;12.00;99.90
37240;DHT22;23130;48.760;9.178;2022-11-15T16:06:39;12.00;99.90
37240;DHT22;23130;48.760;9.178;2022-11-15T16:09:08;12.00;99.90
37240;DHT22;23130;48.760;9.178;2022-11-15T16:11:37;12.10;99.90
37240;DHT22;23130;48.760;9.178;2022-11-15T16:14:02;12.00;99.90
37240;DHT22;23130;48.760;9.178;2022-11-15T16:16:28;12.10;99.90
37240;DHT22;23130;48.760;9.178;2022-11-15T16:18:53;12.10;99.90
37240;DHT22;23130;48.760;9.178;2022-11-15T16:21:19;12.10;99.90
37240;DHT22;23130;48.760;9.178;2022-11-15T16:23:45;12.10;99.90
37240;DHT22;23130;48.760;9.178;2022-11-15T16:26:23;12.20;99.90
37240;DHT22;23130;48.760;9.178;2022-11-15T16:28:49;12.20;99.90
37240;DHT22;23130;48.760;9.178;2022-11-15T16:31:15;12.20;99.90
37240;DHT22;23130;48.760;9.178;2022-11-15T16:33:43;12.20;99.90
37240;DHT22;23130;48.760;9.178;2022-11-15T16:36:30;12.20;99.90
37240;DHT22;23130;48.760;9.178;2022-11-15T16:38:58;12.20;99.90
37240;DHT22;23130;48.760;9.178;2022-11-15T16:41:24;12.30;99.90
37240;DHT22;23130;48.760;9.178;2022-11-15T16:43:50;12.30;99.90
37240;DHT22;23130;48.760;9.178;2022-11-15T16:46:17;12.20;99.90
37240;DHT22;23130;48.760;9.178;2022-11-15T16:48:43;12.30;99.90
37240;DHT22;23130;48.760;9.178;2022-11-15T16:51:08;12.30;99.90
37240;DHT22;23130;48.760;9.178;2022-11-15T16:53:35;12.30;99.90
37240;DHT22;23130;48.760;9.178;2022-11-15T16:56:00;12.40;99.90
37240;DHT22;23130;48.760;9.178;2022-11-15T16:58:26;12.40;99.90
37240;DHT22;23130;48.760;9.178;2022-11-15T17:00:53;12.40;99.90
37240;DHT22;23130;48.760;9.178;2022-11-15T17:03:20;12.40;99.90
37240;DHT22;23130;48.760;9.178;2022-11-15T17:05:46;12.30;99.90
37240;DHT22;23130;48.760;9.178;2022-11-15T17:08:11;12.30;99.90
37240;DHT22;23130;48.760;9.178;2022-11-15T17:10:39;12.40;99.90
37240;DHT22;23130;48.760;9.178;2022-11-15T17:13:06;12.30;99.90
37240;DHT22;23130;48.760;9.178;2022-11-15T17:15:32;12.30;99.90
37240;DHT22;23130;48.760;9.178;2022-11-15T17:17:58;12.40;99.90
37240;DHT22;23130;48.760;9.178;2022-11-15T17:20:23;12.20;99.90
37240;DHT22;23130;48.760;9.178;2022-11-15T17:22:49;12.30;99.90
37240;DHT22;23130;48.760;9.178;2022-11-15T17:25:15;12.20;99.90
37240;DHT22;23130;48.760;9.178;2022-11-15T17:27:40;12.30;99.90
37240;DHT22;23130;48.760;9.178;2022-11-15T17:30:07;12.20;99.90
37240;DHT22;23130;48.760;9.178;2022-11-15T17:32:35;12.10;99.90
37240;DHT22;23130;48.760;9.178;2022-11-15T17:35:01;12.10;99.90
37240;DHT22;23130;48.760;9.178;2022-11-15T17:37:27;12.10;99.90
37240;DHT22;23130;48.760;9.178;2022-11-15T17:39:52;12.10;99.90
37240;DHT22;23130;48.760;9.178;2022-11-15T17:42:18;12.00;99.90
37240;DHT22;23130;48.760;9.178;2022-11-15T17:44:44;11.90;99.90